createdAt,value
2022-10-22T00:01:45.833Z,68.48
2022-10-22T00:04:14.403Z,68.56
2022-10-22T00:06:44.970Z,68.57
2022-10-22T00:09:14.321Z,68.63
2022-10-22T00:11:42.787Z,68.98
2022-10-22T00:14:12.001Z,68.85
2022-10-22T00:16:39.987Z,68.99
2022-10-22T00:19:09.364Z,68.91
2022-10-22T00:21:37.582Z,68.99
2022-10-22T00:24:05.831Z,69.03
2022-10-22T00:26:33.943Z,68.95
2022-10-22T00:29:02.080Z,69.02
2022-10-22T00:31:30.038Z,69.00
2022-10-22T00:33:58.090Z,69.11
2022-10-22T00:46:43.096Z,69.77
2022-10-22T00:49:17.120Z,69.89
2022-10-22T00:51:45.380Z,70.16
2022-10-22T00:54:13.493Z,70.12
2022-10-22T00:56:41.528Z,70.38
2022-10-22T00:59:10.557Z,70.29
2022-10-22T01:01:38.519Z,70.21
2022-10-22T01:04:06.438Z,70.26
2022-10-22T01:06:34.502Z,70.27
2022-10-22T01:09:27.035Z,70.26
2022-10-22T01:12:16.306Z,70.33
2022-10-22T01:15:03.746Z,70.38
2022-10-22T01:17:46.888Z,70.47
2022-10-22T01:21:00.373Z,70.47
2022-10-22T01:23:56.248Z,70.58
2022-10-22T01:26:55.355Z,70.69
2022-10-22T01:29:32.624Z,70.70
2022-10-22T01:32:11.081Z,70.78
2022-10-22T01:34:47.757Z,70.99
2022-10-22T01:37:33.074Z,71.06
2022-10-22T01:40:02.444Z,71.20
2022-10-22T01:42:30.485Z,71.21
2022-10-22T01:44:58.716Z,71.32
2022-10-22T01:48:13.976Z,71.27
2022-10-22T01:50:56.298Z,71.42
2022-10-22T01:58:32.470Z,71.55
2022-10-22T02:02:30.609Z,71.64
2022-10-22T02:05:04.982Z,71.52
2022-10-22T02:07:38.228Z,71.54
2022-10-22T02:10:08.854Z,71.62
2022-10-22T02:12:39.338Z,71.43
2022-10-22T02:15:09.877Z,71.48
2022-10-22T02:17:48.456Z,71.57
2022-10-22T02:20:25.172Z,71.53
2022-10-22T02:22:54.152Z,71.46
2022-10-22T02:25:25.063Z,71.26
2022-10-22T02:28:25.548Z,71.20
2022-10-22T02:31:04.520Z,71.34
2022-10-22T02:33:39.136Z,71.48
2022-10-22T02:36:08.482Z,71.45
2022-10-22T02:38:39.508Z,71.47
2022-10-22T02:41:07.778Z,71.46
2022-10-22T02:43:41.875Z,71.43
2022-10-22T02:46:11.511Z,71.67
2022-10-22T02:48:39.493Z,71.63
2022-10-22T02:51:07.624Z,71.77
2022-10-22T02:53:35.588Z,71.69
2022-10-22T02:56:04.257Z,71.82
2022-10-22T02:58:35.874Z,71.96
2022-10-22T03:01:05.982Z,72.07
2022-10-22T03:03:34.137Z,72.07
2022-10-22T03:06:02.424Z,72.26
2022-10-22T03:08:30.439Z,72.91
2022-10-22T03:10:58.556Z,73.04
2022-10-22T03:13:26.637Z,72.85
2022-10-22T03:15:54.477Z,72.93
2022-10-22T03:18:22.407Z,73.22
2022-10-22T03:20:50.283Z,73.50
2022-10-22T03:23:20.303Z,73.41
2022-10-22T03:25:49.797Z,73.52
2022-10-22T03:28:18.760Z,73.48
2022-10-22T03:30:46.698Z,74.21
2022-10-22T03:33:14.681Z,74.10
2022-10-22T03:35:46.896Z,74.30
2022-10-22T03:38:15.308Z,74.28
2022-10-22T03:40:46.036Z,74.18
2022-10-22T03:43:14.206Z,74.01
2022-10-22T03:45:42.044Z,74.33
2022-10-22T03:48:09.890Z,74.40
2022-10-22T03:50:37.760Z,74.36
2022-10-22T03:53:07.229Z,74.73
2022-10-22T03:55:35.098Z,74.57
2022-10-22T03:58:02.994Z,74.51
2022-10-22T04:00:30.971Z,74.62
2022-10-22T04:02:58.877Z,74.69
2022-10-22T04:05:27.076Z,74.52
2022-10-22T04:07:55.200Z,74.88
2022-10-22T04:10:23.208Z,75.11
2022-10-22T04:12:51.450Z,75.27
2022-10-22T04:15:31.423Z,75.30
2022-10-22T04:18:01.374Z,75.26
2022-10-22T04:20:29.406Z,75.50
2022-10-22T04:22:58.252Z,75.52
2022-10-22T04:25:30.570Z,75.62
2022-10-22T04:27:58.437Z,75.64
2022-10-22T04:30:26.439Z,76.07
2022-10-22T04:32:54.389Z,75.97
2022-10-22T04:35:22.599Z,76.02
2022-10-22T04:37:50.673Z,76.04
2022-10-22T04:40:18.633Z,76.00
2022-10-22T04:42:46.453Z,75.90
2022-10-22T04:45:15.783Z,75.86
2022-10-22T04:47:43.879Z,75.71
2022-10-22T04:50:12.255Z,75.66
2022-10-22T04:52:40.276Z,75.47
2022-10-22T04:55:08.482Z,75.52
2022-10-22T04:57:36.483Z,75.56
2022-10-22T05:00:05.024Z,75.75
2022-10-22T05:02:32.896Z,75.63
2022-10-22T05:05:00.784Z,75.45
2022-10-22T05:07:28.706Z,75.53
2022-10-22T05:09:56.554Z,75.45
2022-10-22T05:12:24.481Z,75.48
2022-10-22T05:14:52.482Z,75.46
2022-10-22T05:17:20.276Z,75.80
2022-10-22T05:19:48.126Z,75.67
2022-10-22T05:22:15.933Z,75.60
2022-10-22T05:24:44.367Z,75.62
2022-10-22T05:27:12.421Z,75.60
2022-10-22T05:29:40.554Z,75.58
2022-10-22T05:32:08.563Z,75.61
2022-10-22T05:34:36.497Z,75.62
2022-10-22T05:37:04.348Z,75.49
2022-10-22T05:39:36.910Z,75.51
2022-10-22T05:42:05.087Z,75.57
2022-10-22T05:44:32.955Z,75.66
2022-10-22T05:47:00.834Z,75.57
2022-10-22T05:49:28.983Z,75.62
2022-10-22T05:51:56.885Z,75.62
2022-10-22T05:54:24.680Z,75.81
2022-10-22T05:56:52.525Z,75.61
2022-10-22T05:59:20.597Z,75.52
2022-10-22T06:01:48.583Z,75.74
2022-10-22T06:04:17.981Z,75.70
2022-10-22T06:06:49.159Z,75.70
2022-10-22T06:09:24.956Z,75.65
2022-10-22T06:11:53.248Z,75.51
2022-10-22T06:14:22.020Z,75.41
2022-10-22T06:16:50.733Z,75.22
2022-10-22T06:19:21.233Z,75.16
2022-10-22T06:21:49.500Z,75.10
2022-10-22T06:24:17.504Z,74.90
2022-10-22T06:26:49.962Z,74.88
2022-10-22T06:29:18.220Z,74.84
2022-10-22T06:31:46.108Z,74.83
2022-10-22T06:34:15.244Z,74.60
2022-10-22T06:36:45.011Z,74.49
2022-10-22T06:39:16.396Z,74.52
2022-10-22T06:41:44.270Z,74.20
2022-10-22T06:44:15.734Z,73.85
2022-10-22T06:46:43.984Z,73.63
2022-10-22T06:49:17.214Z,73.62
2022-10-22T06:51:45.768Z,73.53
2022-10-22T06:54:13.712Z,73.30
2022-10-22T06:56:42.266Z,72.99
2022-10-22T06:59:10.128Z,72.56
2022-10-22T07:01:38.443Z,72.26
2022-10-22T07:04:07.001Z,71.75
2022-10-22T07:06:34.927Z,71.50
2022-10-22T07:09:03.096Z,71.35
2022-10-22T07:11:39.085Z,71.47
2022-10-22T07:14:07.783Z,71.62
2022-10-22T07:16:35.768Z,71.42
2022-10-22T07:19:05.696Z,71.42
2022-10-22T07:21:34.509Z,70.76
2022-10-22T07:24:02.437Z,70.78
2022-10-22T07:26:32.602Z,70.02
2022-10-22T07:29:01.548Z,69.83
2022-10-22T07:31:30.131Z,69.87
2022-10-22T07:33:58.921Z,70.17
2022-10-22T07:36:26.952Z,70.01
2022-10-22T07:38:57.816Z,70.17
2022-10-22T07:41:27.634Z,70.01
2022-10-22T07:43:56.991Z,69.96
2022-10-22T07:46:26.436Z,69.42
2022-10-22T07:48:54.735Z,68.76
2022-10-22T07:51:23.821Z,68.34
2022-10-22T07:53:51.790Z,68.44
2022-10-22T07:56:19.649Z,67.92
2022-10-22T07:58:47.539Z,67.69
2022-10-22T08:01:15.554Z,67.50
2022-10-22T08:03:44.510Z,67.55
2022-10-22T08:06:15.634Z,67.36
2022-10-22T08:08:45.843Z,66.88
2022-10-22T08:11:14.063Z,66.37
2022-10-22T08:13:45.325Z,66.31
2022-10-22T08:16:15.169Z,66.69
2022-10-22T08:18:43.243Z,66.46
2022-10-22T08:21:13.190Z,66.63
2022-10-22T08:23:41.248Z,66.58
2022-10-22T08:26:10.363Z,65.76
2022-10-22T08:28:39.029Z,66.06
2022-10-22T08:31:18.110Z,66.18
2022-10-22T08:33:46.367Z,65.47
2022-10-22T08:36:14.491Z,65.56
2022-10-22T08:38:42.468Z,65.12
2022-10-22T08:41:14.508Z,65.08
2022-10-22T08:44:00.576Z,64.84
2022-10-22T08:46:37.823Z,64.49
2022-10-22T08:49:13.030Z,64.49
2022-10-22T08:51:41.028Z,64.42
2022-10-22T08:54:24.049Z,64.29
2022-10-22T08:57:09.861Z,64.50
2022-10-22T08:59:51.577Z,64.70
2022-10-22T09:02:41.616Z,64.18
2022-10-22T09:05:28.388Z,63.05
2022-10-22T09:07:57.353Z,63.35
2022-10-22T09:10:29.414Z,63.57
2022-10-22T09:12:57.654Z,63.84
2022-10-22T09:15:25.567Z,62.93
2022-10-22T09:18:06.058Z,62.50
2022-10-22T09:21:02.776Z,62.44
2022-10-22T09:23:40.155Z,62.54
2022-10-22T09:26:15.898Z,62.72
2022-10-22T09:28:44.125Z,63.09
2022-10-22T09:31:14.302Z,62.49
2022-10-22T09:33:44.821Z,62.77
2022-10-22T09:36:18.816Z,63.24
2022-10-22T09:38:49.853Z,63.18
2022-10-22T09:41:19.810Z,62.49
2022-10-22T09:43:48.323Z,62.47
2022-10-22T09:46:21.438Z,62.55
2022-10-22T09:49:06.716Z,62.51
2022-10-22T09:51:58.022Z,62.19
2022-10-22T09:54:39.296Z,60.83
2022-10-22T09:57:20.188Z,60.90
2022-10-22T09:59:52.545Z,60.86
2022-10-22T10:02:37.489Z,60.47
2022-10-22T10:05:07.350Z,60.13
2022-10-22T10:07:37.176Z,59.81
2022-10-22T10:10:19.589Z,60.09
2022-10-22T10:13:03.497Z,58.95
2022-10-22T10:15:46.357Z,58.62
2022-10-22T10:18:33.376Z,59.13
2022-10-22T10:21:19.990Z,58.86
2022-10-22T10:24:03.050Z,57.96
2022-10-22T10:26:41.164Z,58.34
2022-10-22T10:32:53.076Z,58.89
2022-10-22T10:35:28.350Z,58.78
2022-10-22T10:38:02.729Z,57.60
2022-10-22T10:40:48.843Z,57.13
2022-10-22T10:44:04.302Z,57.28
2022-10-22T10:46:57.439Z,57.23
2022-10-22T10:49:28.227Z,57.05
2022-10-22T10:52:33.864Z,56.30
2022-10-22T10:55:23.648Z,55.62
2022-10-22T10:58:00.851Z,54.98
2022-10-22T11:00:37.320Z,54.55
2022-10-22T11:03:11.395Z,54.32
2022-10-22T11:05:46.008Z,54.22
2022-10-22T11:08:23.819Z,54.69
2022-10-22T11:10:51.621Z,54.09
2022-10-22T11:13:44.060Z,54.22
2022-10-22T11:16:20.911Z,54.09
2022-10-22T11:18:58.218Z,53.36
2022-10-22T11:21:41.540Z,53.62
2022-10-22T11:24:30.576Z,53.00
2022-10-22T11:27:07.107Z,52.62
2022-10-22T11:29:40.986Z,52.90
2022-10-22T11:32:17.579Z,52.83
2022-10-22T11:34:47.332Z,51.99
2022-10-22T11:37:16.785Z,52.50
2022-10-22T11:39:55.395Z,52.76
2022-10-22T11:50:57.450Z,51.62
2022-10-22T11:53:39.109Z,51.77
2022-10-22T11:56:07.300Z,52.00
2022-10-22T11:58:45.077Z,51.63
2022-10-22T12:01:26.776Z,50.94
2022-10-22T12:03:57.869Z,50.44
2022-10-22T12:06:27.945Z,51.07
2022-10-22T12:09:04.859Z,51.05
2022-10-22T12:11:49.976Z,51.40
2022-10-22T12:14:31.780Z,52.27
2022-10-22T12:17:08.363Z,52.36
2022-10-22T12:19:39.820Z,52.32
2022-10-22T12:22:07.750Z,52.59
2022-10-22T12:24:40.553Z,52.46
2022-10-22T12:27:22.600Z,52.43
2022-10-22T12:29:59.113Z,52.61
2022-10-22T12:32:36.016Z,53.05
2022-10-22T12:35:17.434Z,53.26
2022-10-22T12:37:45.615Z,53.15
2022-10-22T12:40:18.269Z,53.26
2022-10-22T12:43:11.648Z,53.26
2022-10-22T12:45:40.810Z,53.46
2022-10-22T12:48:16.997Z,53.46
2022-10-22T12:50:54.559Z,53.71
2022-10-22T12:53:35.323Z,54.15
2022-10-22T12:56:11.978Z,54.75
2022-10-22T12:58:45.529Z,54.67
2022-10-22T13:01:16.364Z,54.58
2022-10-22T13:03:49.831Z,54.49
2022-10-22T13:06:20.631Z,54.93
2022-10-22T13:09:00.810Z,55.14
2022-10-22T13:11:49.395Z,55.09
2022-10-22T13:14:35.245Z,54.99
2022-10-22T13:17:13.362Z,55.13
2022-10-22T13:19:45.801Z,55.20
2022-10-22T13:22:37.077Z,55.41
2022-10-22T13:25:04.968Z,55.46
2022-10-22T13:27:33.087Z,55.70
2022-10-22T13:30:09.489Z,55.73
2022-10-22T13:32:37.332Z,55.96
2022-10-22T13:35:05.904Z,56.15
2022-10-22T13:37:35.675Z,56.25
2022-10-22T13:40:12.554Z,56.50
2022-10-22T13:42:40.817Z,56.77
2022-10-22T13:45:08.920Z,56.90
2022-10-22T13:47:41.180Z,57.05
2022-10-22T13:50:18.063Z,57.13
2022-10-22T13:52:58.008Z,57.35
2022-10-22T13:55:30.688Z,57.51
2022-10-22T13:58:07.169Z,57.74
2022-10-22T14:00:35.436Z,57.89
2022-10-22T14:03:03.774Z,58.06
2022-10-22T14:05:32.687Z,58.12
2022-10-22T14:08:01.589Z,58.24
2022-10-22T14:10:29.421Z,58.40
2022-10-22T14:12:58.603Z,58.49
2022-10-22T14:15:29.486Z,58.42
2022-10-22T14:17:59.909Z,58.19
2022-10-22T14:20:33.802Z,58.17
2022-10-22T14:23:23.876Z,58.29
2022-10-22T14:25:52.535Z,58.45
2022-10-22T14:28:20.526Z,58.54
2022-10-22T14:30:49.746Z,58.65
2022-10-22T14:33:31.533Z,58.77
2022-10-22T14:36:01.192Z,58.68
2022-10-22T14:38:29.789Z,58.79
2022-10-22T14:40:59.827Z,58.96
2022-10-22T14:43:31.130Z,59.08
2022-10-22T14:45:59.227Z,59.14
2022-10-22T14:48:27.020Z,59.30
2022-10-22T14:50:55.045Z,59.37
2022-10-22T14:53:22.960Z,59.50
2022-10-22T14:55:51.672Z,59.67
2022-10-22T14:58:19.630Z,59.83
2022-10-22T15:00:47.550Z,59.98
2022-10-22T15:03:15.399Z,60.17
2022-10-22T15:05:44.937Z,60.23
2022-10-22T15:08:14.660Z,60.44
2022-10-22T15:10:42.657Z,60.69
2022-10-22T15:13:10.628Z,60.85
2022-10-22T15:15:41.760Z,60.96
2022-10-22T15:18:09.658Z,61.09
2022-10-22T15:20:37.486Z,61.33
2022-10-22T15:23:05.429Z,61.44
2022-10-22T15:25:33.289Z,61.63
2022-10-22T15:28:09.068Z,61.77
2022-10-22T15:30:38.012Z,61.94
2022-10-22T15:33:06.531Z,62.05
2022-10-22T15:35:34.705Z,62.19
2022-10-22T15:38:02.723Z,62.40
2022-10-22T15:40:30.642Z,62.53
2022-10-22T15:42:58.589Z,62.60
2022-10-22T15:45:26.781Z,62.49
2022-10-22T15:47:54.847Z,62.24
2022-10-22T15:50:22.854Z,62.33
2022-10-22T15:52:50.810Z,62.19
2022-10-22T15:55:18.917Z,61.95
2022-10-22T15:57:47.249Z,61.77
2022-10-22T16:00:16.027Z,61.95
2022-10-22T16:02:44.535Z,62.01
2022-10-22T16:05:12.522Z,62.18
2022-10-22T16:07:40.721Z,62.46
2022-10-22T16:10:12.803Z,62.62
2022-10-22T16:12:41.583Z,62.89
2022-10-22T16:15:10.326Z,63.03
2022-10-22T16:17:38.286Z,63.22
2022-10-22T16:20:06.731Z,63.29
2022-10-22T16:22:34.649Z,63.59
2022-10-22T16:25:02.726Z,63.72
2022-10-22T16:27:30.572Z,63.76
2022-10-22T16:29:58.473Z,64.06
2022-10-22T16:32:26.457Z,64.10
2022-10-22T16:34:54.426Z,64.09
2022-10-22T16:37:22.360Z,64.19
2022-10-22T16:39:50.257Z,63.97
2022-10-22T16:42:18.165Z,64.00
2022-10-22T16:44:46.021Z,63.78
2022-10-22T16:47:13.933Z,63.73
2022-10-22T16:49:41.807Z,63.39
2022-10-22T16:52:09.680Z,63.12
2022-10-22T16:54:37.589Z,63.06
2022-10-22T16:57:05.474Z,63.02
2022-10-22T16:59:33.450Z,63.06
2022-10-22T17:02:01.725Z,63.14
2022-10-22T17:04:29.675Z,63.36
2022-10-22T17:06:57.668Z,63.53
2022-10-22T17:09:25.514Z,63.62
2022-10-22T17:11:53.487Z,63.69
2022-10-22T17:14:21.680Z,63.92
2022-10-22T17:16:53.763Z,64.01
2022-10-22T17:19:22.818Z,64.08
2022-10-22T17:21:51.548Z,64.24
2022-10-22T17:24:20.435Z,64.26
2022-10-22T17:26:48.462Z,64.31
2022-10-22T17:29:16.888Z,64.35
2022-10-22T17:31:44.719Z,64.48
2022-10-22T17:34:16.700Z,64.51
2022-10-22T17:36:44.728Z,64.45
2022-10-22T17:39:17.691Z,64.49
2022-10-22T17:41:45.995Z,64.53
2022-10-22T17:44:17.162Z,64.62
2022-10-22T17:46:45.442Z,64.58
2022-10-22T17:49:17.876Z,64.61
2022-10-22T17:51:46.833Z,64.83
2022-10-22T17:54:14.910Z,64.89
2022-10-22T17:56:43.386Z,65.05
2022-10-22T17:59:14.049Z,65.05
2022-10-22T18:01:45.720Z,65.17
2022-10-22T18:04:16.631Z,65.38
2022-10-22T18:06:46.795Z,65.25
2022-10-22T18:09:18.647Z,65.18
2022-10-22T18:11:48.822Z,65.23
2022-10-22T18:14:19.334Z,65.34
2022-10-22T18:16:48.123Z,65.29
2022-10-22T18:19:19.248Z,65.23
2022-10-22T18:21:47.201Z,65.09
2022-10-22T18:24:16.746Z,64.70
2022-10-22T18:26:45.403Z,64.16
2022-10-22T18:29:18.100Z,64.17
2022-10-22T18:31:46.865Z,64.08
2022-10-22T18:34:17.629Z,64.07
2022-10-22T18:36:48.278Z,64.27
2022-10-22T18:39:17.605Z,64.32
2022-10-22T18:41:45.500Z,64.34
2022-10-22T18:44:15.640Z,64.42
2022-10-22T18:46:45.078Z,64.46
2022-10-22T18:49:20.622Z,64.65
2022-10-22T18:51:52.642Z,64.72
2022-10-22T18:54:24.456Z,64.76
2022-10-22T18:56:55.620Z,64.83
2022-10-22T18:59:27.350Z,64.86
2022-10-22T19:02:00.666Z,64.87
2022-10-22T19:04:37.029Z,64.89
2022-10-22T19:09:36.037Z,64.78
2022-10-22T19:12:16.454Z,64.87
2022-10-22T19:14:45.354Z,64.86
2022-10-22T19:17:13.475Z,64.87
2022-10-22T19:19:41.901Z,64.98
2022-10-22T19:22:10.416Z,65.05
2022-10-22T19:24:38.908Z,65.16
2022-10-22T19:27:08.648Z,65.44
2022-10-22T19:29:36.968Z,65.98
2022-10-22T19:32:05.106Z,66.55
2022-10-22T19:34:33.533Z,66.57
2022-10-22T19:37:01.654Z,66.66
2022-10-22T19:39:29.767Z,67.15
2022-10-22T19:41:59.060Z,67.35
2022-10-22T19:44:27.974Z,68.09
2022-10-22T19:46:57.449Z,68.25
2022-10-22T19:49:25.752Z,68.38
2022-10-22T19:51:53.813Z,68.66
2022-10-22T19:55:19.717Z,68.98
2022-10-22T19:58:01.801Z,69.45
2022-10-22T20:00:32.211Z,70.00
2022-10-22T20:03:00.221Z,70.15
2022-10-22T20:05:28.979Z,70.34
2022-10-22T20:07:57.300Z,70.52
2022-10-22T20:10:25.461Z,70.39
2022-10-22T20:12:53.389Z,70.37
2022-10-22T20:15:22.126Z,70.36
2022-10-22T20:17:52.585Z,70.30
2022-10-22T20:20:23.069Z,70.26
2022-10-22T20:22:54.707Z,70.19
2022-10-22T20:25:22.635Z,70.15
2022-10-22T20:27:50.542Z,70.21
2022-10-22T20:30:20.190Z,70.13
2022-10-22T20:32:49.166Z,70.29
2022-10-22T20:35:17.439Z,70.11
2022-10-22T20:37:46.101Z,69.65
2022-10-22T20:40:14.651Z,69.79
2022-10-22T20:42:45.097Z,70.02
2022-10-22T20:45:14.107Z,70.07
2022-10-22T20:47:51.247Z,69.73
2022-10-22T20:50:21.345Z,69.67
2022-10-22T20:52:49.408Z,69.60
2022-10-22T20:55:17.418Z,69.57
2022-10-22T20:57:45.451Z,69.60
2022-10-22T21:00:14.893Z,69.40
2022-10-22T21:02:46.817Z,69.53
2022-10-22T21:05:14.951Z,69.79
2022-10-22T21:07:43.236Z,70.15
2022-10-22T21:10:11.474Z,70.44
2022-10-22T21:12:42.111Z,70.51
2022-10-22T21:15:12.642Z,70.85
2022-10-22T21:17:40.916Z,71.14
2022-10-22T21:22:36.896Z,71.72
2022-10-22T21:25:05.183Z,71.91
2022-10-22T21:27:33.863Z,71.96
2022-10-22T21:30:02.403Z,71.87
2022-10-22T21:32:31.218Z,71.99
2022-10-22T21:34:59.363Z,72.39
2022-10-22T21:37:30.274Z,72.70
2022-10-22T21:39:58.680Z,72.80
2022-10-22T21:42:26.930Z,72.83
2022-10-22T21:44:55.177Z,73.07
2022-10-22T21:47:23.082Z,73.27
2022-10-22T21:49:51.320Z,73.43
2022-10-22T21:52:19.431Z,73.71
2022-10-22T21:54:47.475Z,74.03
2022-10-22T21:57:15.343Z,74.14
2022-10-22T21:59:43.323Z,74.27
2022-10-22T22:02:11.351Z,74.58
2022-10-22T22:04:40.035Z,74.92
2022-10-22T22:07:08.105Z,75.10
2022-10-22T22:09:36.114Z,75.39
2022-10-22T22:12:04.276Z,75.64
2022-10-22T22:14:32.822Z,75.60
2022-10-22T22:17:00.741Z,75.89
2022-10-22T22:19:35.766Z,76.08
2022-10-22T22:22:04.845Z,76.17
2022-10-22T22:24:32.986Z,76.35
2022-10-22T22:27:01.136Z,76.53
2022-10-22T22:29:29.068Z,76.65
2022-10-22T22:31:56.976Z,76.63
2022-10-22T22:34:25.128Z,76.45
2022-10-22T22:36:53.240Z,76.40
2022-10-22T22:39:25.739Z,76.44
2022-10-22T22:41:53.611Z,76.24
2022-10-22T22:44:21.517Z,76.41
2022-10-22T22:46:49.661Z,76.61
2022-10-22T22:49:17.669Z,76.61
2022-10-22T22:51:45.568Z,76.77
2022-10-22T22:54:13.409Z,76.80
2022-10-22T22:56:41.572Z,76.82
2022-10-22T22:59:11.429Z,76.91
2022-10-22T23:01:40.087Z,76.97
2022-10-22T23:04:13.118Z,77.23
2022-10-22T23:06:41.083Z,77.42
2022-10-22T23:09:11.688Z,77.70
2022-10-22T23:11:41.393Z,77.92
2022-10-22T23:14:12.525Z,78.09
2022-10-22T23:16:45.522Z,78.33
2022-10-22T23:19:16.901Z,78.72
2022-10-22T23:21:48.981Z,78.92
2022-10-22T23:24:19.402Z,79.18
2022-10-22T23:26:51.126Z,79.40
2022-10-22T23:29:21.986Z,79.71
2022-10-22T23:31:51.243Z,80.08
2022-10-22T23:34:21.995Z,81.34
2022-10-22T23:36:51.372Z,81.80
2022-10-22T23:39:23.101Z,82.36
2022-10-22T23:41:53.147Z,82.67
2022-10-22T23:44:22.143Z,83.10
2022-10-22T23:46:50.494Z,84.16
2022-10-22T23:49:18.489Z,84.94
2022-10-22T23:51:46.453Z,85.12
2022-10-22T23:54:18.629Z,85.31
2022-10-22T23:56:47.062Z,85.56
2022-10-22T23:59:15.708Z,85.50
